createdAt,value
2022-11-06T00:02:05.080Z,12.63
2022-11-06T00:04:32.676Z,13.93
2022-11-06T00:06:59.670Z,19.25
2022-11-06T00:09:26.672Z,11.73
2022-11-06T00:11:53.711Z,12.63
2022-11-06T00:14:20.781Z,13.07
2022-11-06T00:16:48.099Z,12.73
2022-11-06T00:19:16.201Z,12.90
2022-11-06T00:21:44.141Z,14.93
2022-11-06T00:24:13.854Z,14.43
2022-11-06T00:26:41.413Z,13.02
2022-11-06T00:29:14.705Z,13.98
2022-11-06T00:31:42.346Z,11.88
2022-11-06T00:34:10.708Z,13.18
2022-11-06T00:36:37.788Z,10.25
2022-11-06T00:39:06.117Z,10.68
2022-11-06T00:41:33.090Z,12.20
2022-11-06T00:44:02.417Z,11.63
2022-11-06T00:46:30.087Z,14.25
2022-11-06T00:48:57.652Z,14.77
2022-11-06T00:51:29.114Z,12.77
2022-11-06T00:54:02.376Z,12.00
2022-11-06T00:56:30.925Z,13.48
2022-11-06T00:59:04.363Z,10.57
2022-11-06T01:01:35.615Z,12.10
2022-11-06T01:04:12.283Z,13.00
2022-11-06T01:06:43.016Z,13.10
2022-11-06T01:09:14.292Z,17.27
2022-11-06T01:14:32.935Z,13.05
2022-11-06T01:17:00.052Z,14.43
2022-11-06T01:19:27.124Z,14.35
2022-11-06T01:21:54.392Z,14.50
2022-11-06T01:24:26.504Z,11.27
2022-11-06T01:29:40.836Z,12.82
2022-11-06T01:32:08.075Z,13.45
2022-11-06T01:34:35.463Z,13.80
2022-11-06T01:37:02.583Z,13.48
2022-11-06T01:39:31.141Z,13.40
2022-11-06T01:41:58.401Z,16.13
2022-11-06T01:44:43.824Z,13.60
2022-11-06T01:47:28.851Z,14.98
2022-11-06T01:50:02.510Z,15.25
2022-11-06T01:52:33.167Z,11.82
2022-11-06T01:55:19.674Z,9.13
2022-11-06T01:57:48.503Z,11.63
2022-11-06T02:00:16.009Z,12.52
2022-11-06T02:02:43.428Z,13.40
2022-11-06T02:05:10.814Z,22.58
2022-11-06T02:07:39.324Z,11.43
2022-11-06T02:10:06.856Z,11.90
2022-11-06T02:13:06.913Z,12.50
2022-11-06T02:15:40.302Z,11.48
2022-11-06T02:18:33.762Z,10.15
2022-11-06T02:21:38.129Z,14.00
2022-11-06T02:24:43.838Z,11.38
2022-11-06T02:27:22.870Z,12.38
2022-11-06T02:30:11.298Z,11.10
2022-11-06T02:33:02.550Z,10.80
2022-11-06T02:35:35.653Z,11.10
2022-11-06T02:38:18.334Z,12.50
2022-11-06T02:40:52.358Z,13.15
2022-11-06T02:43:24.002Z,11.20
2022-11-06T02:46:30.790Z,12.63
2022-11-06T02:49:05.618Z,11.68
2022-11-06T02:51:37.867Z,13.75
2022-11-06T02:56:39.616Z,10.88
2022-11-06T02:59:23.947Z,15.85
2022-11-06T03:01:57.662Z,10.55
2022-11-06T03:04:48.660Z,9.13
2022-11-06T03:07:31.501Z,12.90
2022-11-06T03:09:58.859Z,10.90
2022-11-06T03:12:33.829Z,9.38
2022-11-06T03:15:33.420Z,15.10
2022-11-06T03:18:28.031Z,14.40
2022-11-06T03:21:06.613Z,10.52
2022-11-06T03:23:48.497Z,14.23
2022-11-06T03:26:30.218Z,11.57
2022-11-06T03:29:04.030Z,11.80
2022-11-06T03:31:39.840Z,15.20
2022-11-06T03:34:21.512Z,11.35
2022-11-06T03:36:59.633Z,9.15
2022-11-06T03:39:33.199Z,14.05
2022-11-06T03:42:06.820Z,16.50
2022-11-06T03:44:39.506Z,8.57
2022-11-06T03:47:38.213Z,10.65
2022-11-06T03:50:26.690Z,10.55
2022-11-06T03:53:09.636Z,10.68
2022-11-06T03:55:45.490Z,9.57
2022-11-06T03:58:19.406Z,9.55
2022-11-06T04:00:47.370Z,10.63
2022-11-06T04:03:23.263Z,11.75
2022-11-06T04:06:05.027Z,13.73
2022-11-06T04:08:51.824Z,8.45
2022-11-06T04:11:41.441Z,10.07
2022-11-06T04:14:09.431Z,11.00
2022-11-06T04:16:39.421Z,9.48
2022-11-06T04:19:19.785Z,10.48
2022-11-06T04:22:30.636Z,8.45
2022-11-06T04:25:58.416Z,10.82
2022-11-06T04:29:13.485Z,8.45
2022-11-06T04:32:12.153Z,7.13
2022-11-06T04:35:04.445Z,7.80
2022-11-06T04:37:44.666Z,6.72
2022-11-06T04:40:25.463Z,5.38
2022-11-06T04:43:23.298Z,5.10
2022-11-06T04:45:53.754Z,5.55
2022-11-06T04:48:22.971Z,6.03
2022-11-06T04:50:55.680Z,4.75
2022-11-06T04:53:24.126Z,5.35
2022-11-06T04:56:01.691Z,5.55
2022-11-06T04:58:28.654Z,5.32
2022-11-06T05:00:55.689Z,5.20
2022-11-06T05:03:22.698Z,5.07
2022-11-06T05:05:49.768Z,4.88
2022-11-06T05:08:19.849Z,4.05
2022-11-06T05:10:47.976Z,6.63
2022-11-06T05:13:15.903Z,9.07
2022-11-06T05:15:43.090Z,7.40
2022-11-06T05:18:10.398Z,5.05
2022-11-06T05:20:37.713Z,10.00
2022-11-06T05:23:05.176Z,6.05
2022-11-06T05:25:38.316Z,6.40
2022-11-06T05:28:08.081Z,6.43
2022-11-06T05:30:37.385Z,5.30
2022-11-06T05:33:04.809Z,16.23
2022-11-06T05:35:32.572Z,8.00
2022-11-06T05:38:01.943Z,5.30
2022-11-06T05:40:29.545Z,6.15
2022-11-06T05:42:56.516Z,6.35
2022-11-06T05:45:23.479Z,9.60
2022-11-06T05:47:50.481Z,4.53
2022-11-06T05:50:17.504Z,5.47
2022-11-06T05:52:44.565Z,4.93
2022-11-06T05:55:14.679Z,5.05
2022-11-06T05:57:42.933Z,5.30
2022-11-06T06:00:11.751Z,4.97
2022-11-06T06:02:43.161Z,5.05
2022-11-06T06:05:10.740Z,7.35
2022-11-06T06:07:37.745Z,6.30
2022-11-06T06:10:05.814Z,5.47
2022-11-06T06:12:32.925Z,5.20
2022-11-06T06:15:00.294Z,5.22
2022-11-06T06:17:27.516Z,5.10
2022-11-06T06:19:54.930Z,5.90
2022-11-06T06:22:22.521Z,5.93
2022-11-06T06:24:49.919Z,5.25
2022-11-06T06:27:17.305Z,6.63
2022-11-06T06:29:44.686Z,4.72
2022-11-06T06:32:11.696Z,9.90
2022-11-06T06:34:39.366Z,5.05
2022-11-06T06:37:06.782Z,6.43
2022-11-06T06:39:34.153Z,4.50
2022-11-06T06:42:01.172Z,4.57
2022-11-06T06:44:29.034Z,4.47
2022-11-06T06:46:56.488Z,6.82
2022-11-06T06:49:23.495Z,4.15
2022-11-06T06:51:50.732Z,5.70
2022-11-06T06:54:18.138Z,5.05
2022-11-06T06:56:45.544Z,5.82
2022-11-06T06:59:12.925Z,6.93
2022-11-06T07:01:39.998Z,6.10
2022-11-06T07:04:08.784Z,7.07
2022-11-06T07:06:35.800Z,6.22
2022-11-06T07:09:03.283Z,6.28
2022-11-06T07:11:30.470Z,7.60
2022-11-06T07:14:01.068Z,12.35
2022-11-06T07:16:29.977Z,10.85
2022-11-06T07:18:57.709Z,9.95
2022-11-06T07:21:25.236Z,8.57
2022-11-06T07:23:52.594Z,6.53
2022-11-06T07:26:20.070Z,7.22
2022-11-06T07:28:50.201Z,7.05
2022-11-06T07:31:18.003Z,7.28
2022-11-06T07:33:45.490Z,13.52
2022-11-06T07:36:13.749Z,7.43
2022-11-06T07:38:42.970Z,7.55
2022-11-06T07:41:15.884Z,7.85
2022-11-06T07:43:43.855Z,10.45
2022-11-06T07:46:13.459Z,12.55
2022-11-06T07:48:41.013Z,20.13
2022-11-06T07:51:11.239Z,20.10
2022-11-06T07:53:38.885Z,11.18
2022-11-06T07:56:06.476Z,9.40
2022-11-06T07:58:34.431Z,11.63
2022-11-06T08:01:02.548Z,12.00
2022-11-06T08:03:30.275Z,7.97
2022-11-06T08:05:58.883Z,6.95
2022-11-06T08:08:27.344Z,11.27
2022-11-06T08:10:55.109Z,12.32
2022-11-06T08:13:22.390Z,9.27
2022-11-06T08:15:49.915Z,11.30
2022-11-06T08:18:17.412Z,12.98
2022-11-06T08:20:45.059Z,12.15
2022-11-06T08:23:13.581Z,14.88
2022-11-06T08:25:40.919Z,10.60
2022-11-06T08:28:09.194Z,13.77
2022-11-06T08:30:36.657Z,9.45
2022-11-06T08:33:07.528Z,13.63
2022-11-06T08:35:35.607Z,15.57
2022-11-06T08:38:03.122Z,8.20
2022-11-06T08:40:31.463Z,12.38
2022-11-06T08:43:04.203Z,8.30
2022-11-06T08:45:32.189Z,13.70
2022-11-06T08:48:04.061Z,12.40
2022-11-06T08:50:32.669Z,9.82
2022-11-06T08:53:04.361Z,9.35
2022-11-06T08:55:32.685Z,15.52
2022-11-06T08:58:01.031Z,14.27
2022-11-06T09:00:28.775Z,10.77
2022-11-06T09:03:14.156Z,6.57
2022-11-06T09:05:43.125Z,9.82
2022-11-06T09:08:11.502Z,9.30
2022-11-06T09:10:40.266Z,7.57
2022-11-06T09:13:08.076Z,8.13
2022-11-06T09:15:36.125Z,9.98
2022-11-06T09:18:03.587Z,10.07
2022-11-06T09:21:12.941Z,6.55
2022-11-06T09:23:46.003Z,10.35
2022-11-06T09:26:13.413Z,6.45
2022-11-06T09:28:41.073Z,4.43
2022-11-06T09:31:08.351Z,7.63
2022-11-06T09:33:36.128Z,6.32
2022-11-06T09:36:08.223Z,7.80
2022-11-06T09:38:35.268Z,8.15
2022-11-06T09:41:03.659Z,8.90
2022-11-06T09:44:08.508Z,9.30
2022-11-06T09:46:46.106Z,6.13
2022-11-06T09:49:48.668Z,6.35
2022-11-06T09:52:33.256Z,7.13
2022-11-06T09:55:23.595Z,5.75
2022-11-06T09:58:20.309Z,6.40
2022-11-06T10:00:53.632Z,6.80
2022-11-06T10:03:41.137Z,4.57
2022-11-06T10:06:08.895Z,6.50
2022-11-06T10:08:36.809Z,8.35
2022-11-06T10:11:26.258Z,5.72
2022-11-06T10:13:54.462Z,8.88
2022-11-06T10:17:03.325Z,5.97
2022-11-06T10:19:56.908Z,4.90
2022-11-06T10:22:40.355Z,6.43
2022-11-06T10:25:24.237Z,6.82
2022-11-06T10:28:04.536Z,5.95
2022-11-06T10:30:58.654Z,5.78
2022-11-06T10:33:32.795Z,5.22
2022-11-06T10:36:08.259Z,4.35
2022-11-06T10:38:39.188Z,3.50
2022-11-06T10:41:10.912Z,4.28
2022-11-06T10:43:57.827Z,5.40
2022-11-06T10:46:32.315Z,5.00
2022-11-06T10:49:03.400Z,4.60
2022-11-06T10:51:44.650Z,4.40
2022-11-06T10:55:11.936Z,4.45
2022-11-06T10:58:19.007Z,6.53
2022-11-06T11:00:46.471Z,3.58
2022-11-06T11:03:28.287Z,2.90
2022-11-06T11:05:55.749Z,3.75
2022-11-06T11:08:37.656Z,3.20
2022-11-06T11:11:18.012Z,3.50
2022-11-06T11:13:49.036Z,7.43
2022-11-06T11:16:21.589Z,3.80
2022-11-06T11:18:50.656Z,3.00
2022-11-06T11:21:25.887Z,2.42
2022-11-06T11:24:10.561Z,2.05
2022-11-06T11:27:02.524Z,3.65
2022-11-06T11:29:32.600Z,3.03
2022-11-06T11:32:05.230Z,2.53
2022-11-06T11:34:36.769Z,2.85
2022-11-06T11:37:06.471Z,4.43
2022-11-06T11:39:44.271Z,2.72
2022-11-06T11:42:27.677Z,2.22
2022-11-06T11:45:09.859Z,2.85
2022-11-06T11:47:42.319Z,3.20
2022-11-06T11:50:27.051Z,2.63
2022-11-06T11:53:20.028Z,2.70
2022-11-06T11:55:50.786Z,5.45
2022-11-06T11:58:24.777Z,3.42
2022-11-06T12:01:04.860Z,3.67
2022-11-06T12:03:40.077Z,2.78
2022-11-06T12:06:14.383Z,2.05
2022-11-06T12:08:49.257Z,3.17
2022-11-06T12:11:23.483Z,3.95
2022-11-06T12:14:23.676Z,7.20
2022-11-06T12:16:55.094Z,2.70
2022-11-06T12:19:26.231Z,2.67
2022-11-06T12:22:00.290Z,2.30
2022-11-06T12:24:52.183Z,3.03
2022-11-06T12:27:32.966Z,3.63
2022-11-06T12:30:10.665Z,6.68
2022-11-06T12:33:00.224Z,2.92
2022-11-06T12:35:42.507Z,2.05
2022-11-06T12:38:19.415Z,3.78
2022-11-06T12:40:57.464Z,2.17
2022-11-06T12:43:46.404Z,1.95
2022-11-06T12:46:59.479Z,2.45
2022-11-06T12:49:36.039Z,2.20
2022-11-06T12:52:18.184Z,2.50
2022-11-06T12:55:59.599Z,2.50
2022-11-06T12:58:46.879Z,2.15
2022-11-06T13:01:43.219Z,2.17
2022-11-06T13:04:26.438Z,2.28
2022-11-06T13:07:20.417Z,2.75
2022-11-06T13:10:24.549Z,1.98
2022-11-06T13:13:30.709Z,2.42
2022-11-06T13:16:21.163Z,2.55
2022-11-06T13:19:19.605Z,2.65
2022-11-06T13:22:09.899Z,1.95
2022-11-06T13:24:54.626Z,2.20
2022-11-06T13:27:50.865Z,1.85
2022-11-06T13:30:21.354Z,3.80
2022-11-06T13:33:15.943Z,2.50
2022-11-06T13:35:45.425Z,3.75
2022-11-06T13:38:27.048Z,2.25
2022-11-06T13:41:04.028Z,3.00
2022-11-06T13:43:39.340Z,5.90
2022-11-06T13:46:38.135Z,3.22
2022-11-06T13:49:14.232Z,2.85
2022-11-06T13:51:59.023Z,1.77
2022-11-06T13:55:12.364Z,2.65
2022-11-06T13:58:04.321Z,3.72
2022-11-06T14:00:45.507Z,4.32
2022-11-06T14:03:37.222Z,3.38
2022-11-06T14:06:20.744Z,6.47
2022-11-06T14:09:00.888Z,3.17
2022-11-06T14:11:34.937Z,2.83
2022-11-06T14:14:04.637Z,3.90
2022-11-06T14:16:37.909Z,4.03
2022-11-06T14:19:06.754Z,4.00
2022-11-06T14:21:36.698Z,2.70
2022-11-06T14:24:30.757Z,3.70
2022-11-06T14:26:58.729Z,4.30
2022-11-06T14:29:28.692Z,2.95
2022-11-06T14:32:21.445Z,3.60
2022-11-06T14:34:48.767Z,4.88
2022-11-06T14:37:18.576Z,4.80
2022-11-06T14:39:51.348Z,3.83
2022-11-06T14:42:27.265Z,6.13
2022-11-06T14:45:11.957Z,4.45
2022-11-06T14:47:49.513Z,4.10
2022-11-06T14:50:19.078Z,4.25
2022-11-06T14:52:57.582Z,5.43
2022-11-06T14:55:41.528Z,4.72
2022-11-06T14:58:24.126Z,4.38
2022-11-06T15:01:10.602Z,5.50
2022-11-06T15:03:57.689Z,4.78
2022-11-06T15:06:33.791Z,6.60
2022-11-06T15:09:11.944Z,4.78
2022-11-06T15:11:47.928Z,6.22
2022-11-06T15:14:15.044Z,4.25
2022-11-06T15:16:52.116Z,9.25
2022-11-06T15:19:28.182Z,6.90
2022-11-06T15:22:15.784Z,4.25
2022-11-06T15:25:00.538Z,5.63
2022-11-06T15:27:38.980Z,5.80
2022-11-06T15:30:17.188Z,7.63
2022-11-06T15:32:46.807Z,8.27
2022-11-06T15:35:22.818Z,5.43
2022-11-06T15:38:06.204Z,5.85
2022-11-06T15:40:36.081Z,3.92
2022-11-06T15:43:29.031Z,6.50
2022-11-06T15:46:29.410Z,5.20
2022-11-06T15:49:18.128Z,5.38
2022-11-06T15:51:59.849Z,5.30
2022-11-06T15:54:40.716Z,7.88
2022-11-06T15:57:22.155Z,6.53
2022-11-06T16:00:12.645Z,7.47
2022-11-06T16:03:03.628Z,6.20
2022-11-06T16:05:34.966Z,6.90
2022-11-06T16:08:03.567Z,5.03
2022-11-06T16:10:30.555Z,6.82
2022-11-06T16:12:57.783Z,6.05
2022-11-06T16:15:45.537Z,6.15
2022-11-06T16:18:44.011Z,8.45
2022-11-06T16:21:21.579Z,6.07
2022-11-06T16:24:04.863Z,8.15
2022-11-06T16:26:35.600Z,7.55
2022-11-06T16:29:19.842Z,7.20
2022-11-06T16:31:48.447Z,5.70
2022-11-06T16:34:30.533Z,5.97
2022-11-06T16:37:29.801Z,7.00
2022-11-06T16:39:59.405Z,9.15
2022-11-06T16:42:35.914Z,7.53
2022-11-06T16:45:16.879Z,4.57
2022-11-06T16:48:06.788Z,7.07
2022-11-06T16:50:52.758Z,8.50
2022-11-06T16:53:27.984Z,8.65
2022-11-06T16:56:08.029Z,11.63
2022-11-06T16:58:57.244Z,9.93
2022-11-06T17:01:26.844Z,7.00
2022-11-06T17:04:02.088Z,7.95
2022-11-06T17:06:35.646Z,8.02
2022-11-06T17:09:22.680Z,5.82
2022-11-06T17:11:54.986Z,9.07
2022-11-06T17:14:23.665Z,5.43
2022-11-06T17:17:00.263Z,7.57
2022-11-06T17:19:29.735Z,9.65
2022-11-06T17:22:00.071Z,8.90
2022-11-06T17:24:42.898Z,14.40
2022-11-06T17:27:10.877Z,7.75
2022-11-06T17:29:38.909Z,7.43
2022-11-06T17:32:06.585Z,8.13
2022-11-06T17:34:34.452Z,8.80
2022-11-06T17:37:02.193Z,5.80
2022-11-06T17:39:30.249Z,5.88
2022-11-06T17:41:57.831Z,8.95
2022-11-06T17:44:25.563Z,6.95
2022-11-06T17:46:53.256Z,8.93
2022-11-06T17:49:21.072Z,6.55
2022-11-06T17:52:01.448Z,7.32
2022-11-06T17:54:36.471Z,7.90
2022-11-06T17:57:07.254Z,7.15
2022-11-06T17:59:35.721Z,8.15
2022-11-06T18:02:03.447Z,9.25
2022-11-06T18:04:31.514Z,8.52
2022-11-06T18:06:59.691Z,7.32
2022-11-06T18:09:27.447Z,7.15
2022-11-06T18:11:55.972Z,8.95
2022-11-06T18:14:25.611Z,10.27
2022-11-06T18:16:53.577Z,7.20
2022-11-06T18:19:23.777Z,6.93
2022-11-06T18:21:52.153Z,8.55
2022-11-06T18:24:19.817Z,8.85
2022-11-06T18:26:48.076Z,13.27
2022-11-06T18:29:20.106Z,14.30
2022-11-06T18:31:50.628Z,8.13
2022-11-06T18:34:21.340Z,7.57
2022-11-06T18:36:50.668Z,5.53
2022-11-06T18:39:19.284Z,5.47
2022-11-06T18:41:47.100Z,9.85
2022-11-06T18:44:17.406Z,5.22
2022-11-06T18:46:47.036Z,6.60
2022-11-06T18:49:14.867Z,6.38
2022-11-06T18:51:42.687Z,5.85
2022-11-06T18:54:11.945Z,5.85
2022-11-06T18:56:39.658Z,6.32
2022-11-06T18:59:16.183Z,6.90
2022-11-06T19:01:44.027Z,6.25
2022-11-06T19:04:11.846Z,6.38
2022-11-06T19:06:40.179Z,6.88
2022-11-06T19:09:09.079Z,4.43
2022-11-06T19:11:36.593Z,5.22
2022-11-06T19:14:04.148Z,5.95
2022-11-06T19:16:31.293Z,5.13
2022-11-06T19:21:29.943Z,5.50
2022-11-06T19:24:05.560Z,5.88
2022-11-06T19:26:35.316Z,3.15
2022-11-06T19:29:03.721Z,3.75
2022-11-06T19:31:33.063Z,6.53
2022-11-06T19:34:02.461Z,3.45
2022-11-06T19:36:30.961Z,3.47
2022-11-06T19:38:59.652Z,4.03
2022-11-06T19:41:28.392Z,3.50
2022-11-06T19:43:56.275Z,4.53
2022-11-06T19:46:28.451Z,4.28
2022-11-06T19:48:57.302Z,4.13
2022-11-06T19:51:25.904Z,5.88
2022-11-06T19:53:57.307Z,5.30
2022-11-06T19:56:25.812Z,4.38
2022-11-06T19:58:53.575Z,5.32
2022-11-06T20:01:21.789Z,4.40
2022-11-06T20:03:49.628Z,5.30
2022-11-06T20:06:17.749Z,6.93
2022-11-06T20:08:50.253Z,6.80
2022-11-06T20:11:18.642Z,6.30
2022-11-06T20:13:46.789Z,4.45
2022-11-06T20:16:19.869Z,6.38
2022-11-06T20:18:59.333Z,4.38
2022-11-06T20:21:28.735Z,5.32
2022-11-06T20:23:57.317Z,1.92
2022-11-06T20:26:25.730Z,3.92
2022-11-06T20:28:53.527Z,9.07
2022-11-06T20:31:21.881Z,3.58
2022-11-06T20:33:50.508Z,1.70
2022-11-06T20:36:19.407Z,4.25
2022-11-06T20:38:47.373Z,7.20
2022-11-06T20:41:15.102Z,2.85
2022-11-06T20:43:43.106Z,3.28
2022-11-06T20:46:13.028Z,3.20
2022-11-06T20:48:43.012Z,2.17
2022-11-06T20:51:17.698Z,2.63
2022-11-06T20:53:46.403Z,2.50
2022-11-06T20:56:20.567Z,5.90
2022-11-06T20:58:48.738Z,2.70
2022-11-06T21:01:21.102Z,2.92
2022-11-06T21:03:50.026Z,2.45
2022-11-06T21:06:21.564Z,4.13
2022-11-06T21:08:53.481Z,3.53
2022-11-06T21:11:25.456Z,2.50
2022-11-06T21:13:54.748Z,2.88
2022-11-06T21:16:29.407Z,2.15
2022-11-06T21:19:00.117Z,1.65
2022-11-06T21:21:33.152Z,1.80
2022-11-06T21:24:02.170Z,2.92
2022-11-06T21:26:34.272Z,4.47
2022-11-06T21:31:34.875Z,3.88
2022-11-06T21:34:04.206Z,2.15
2022-11-06T21:36:35.446Z,4.38
2022-11-06T21:39:10.064Z,2.97
2022-11-06T21:41:38.631Z,3.03
2022-11-06T21:44:07.762Z,4.15
2022-11-06T21:46:35.532Z,2.80
2022-11-06T21:49:04.331Z,2.30
2022-11-06T21:51:34.245Z,2.00
2022-11-06T21:54:24.131Z,3.38
2022-11-06T21:56:53.590Z,2.95
2022-11-06T21:59:26.738Z,3.30
2022-11-06T22:01:55.035Z,1.92
2022-11-06T22:04:23.464Z,2.67
2022-11-06T22:06:52.617Z,1.77
2022-11-06T22:09:25.313Z,2.83
2022-11-06T22:11:54.500Z,3.30
2022-11-06T22:14:23.981Z,3.65
2022-11-06T22:16:53.453Z,2.83
2022-11-06T22:19:24.315Z,4.03
2022-11-06T22:21:54.950Z,4.13
2022-11-06T22:24:22.844Z,3.22
2022-11-06T22:26:50.783Z,2.10
2022-11-06T22:29:18.651Z,4.07
2022-11-06T22:31:49.798Z,5.72
2022-11-06T22:34:18.128Z,4.10
2022-11-06T22:36:47.911Z,4.70
2022-11-06T22:39:18.057Z,5.72
2022-11-06T22:41:46.566Z,3.90
2022-11-06T22:44:16.632Z,2.92
2022-11-06T22:46:46.584Z,5.97
2022-11-06T22:49:20.148Z,3.58
2022-11-06T22:51:49.808Z,2.92
2022-11-06T22:54:19.986Z,4.10
2022-11-06T22:56:49.274Z,3.80
2022-11-06T22:59:17.328Z,3.05
2022-11-06T23:01:46.150Z,2.75
2022-11-06T23:04:15.521Z,4.45
2022-11-06T23:06:47.002Z,3.03
2022-11-06T23:09:15.104Z,2.05
2022-11-06T23:11:44.516Z,1.85
2022-11-06T23:14:11.873Z,1.52
2022-11-06T23:16:58.210Z,3.17
2022-11-06T23:19:32.371Z,2.13
2022-11-06T23:22:19.321Z,2.80
2022-11-06T23:24:47.359Z,2.17
2022-11-06T23:27:16.427Z,2.30
2022-11-06T23:29:51.637Z,2.83
2022-11-06T23:32:23.522Z,6.30
2022-11-06T23:34:54.328Z,1.93
2022-11-06T23:37:33.715Z,2.50
2022-11-06T23:40:27.277Z,3.22
2022-11-06T23:43:05.242Z,4.03
2022-11-06T23:45:56.922Z,1.65
2022-11-06T23:48:41.748Z,1.98
2022-11-06T23:51:15.501Z,2.17
2022-11-06T23:53:51.251Z,2.38
2022-11-06T23:56:25.246Z,2.10
2022-11-06T23:58:57.432Z,3.33
